sensor_id;sensor_type;location;lat;lon;timestamp;pressure;altitude;pressure_sealevel;temperature
42119;BMP280;27783;42.782;23.274;2022-11-25T00:01:37;95296.31;;;6.06
42119;BMP280;27783;42.782;23.274;2022-11-25T00:04:03;95315.00;;;6.04
42119;BMP280;27783;42.782;23.274;2022-11-25T00:06:48;95304.94;;;6.10
42119;BMP280;27783;42.782;23.274;2022-11-25T00:09:17;95297.06;;;6.06
42119;BMP280;27783;42.782;23.274;2022-11-25T00:11:42;95298.25;;;6.09
42119;BMP280;27783;42.782;23.274;2022-11-25T00:14:16;95313.53;;;6.07
42119;BMP280;27783;42.782;23.274;2022-11-25T00:16:41;95317.25;;;6.06
42119;BMP280;27783;42.782;23.274;2022-11-25T00:19:09;95320.25;;;6.08
42119;BMP280;27783;42.782;23.274;2022-11-25T00:21:36;95326.59;;;6.07
42119;BMP280;27783;42.782;23.274;2022-11-25T00:24:05;95310.88;;;6.03
42119;BMP280;27783;42.782;23.274;2022-11-25T00:26:32;95324.75;;;6.07
42119;BMP280;27783;42.782;23.274;2022-11-25T00:29:02;95309.38;;;6.06
42119;BMP280;27783;42.782;23.274;2022-11-25T00:31:36;95311.69;;;6.11
42119;BMP280;27783;42.782;23.274;2022-11-25T00:34:02;95306.09;;;6.09
42119;BMP280;27783;42.782;23.274;2022-11-25T00:36:34;95320.97;;;6.05
42119;BMP280;27783;42.782;23.274;2022-11-25T00:39:11;95321.38;;;6.07
42119;BMP280;27783;42.782;23.274;2022-11-25T00:41:41;95325.50;;;6.08
42119;BMP280;27783;42.782;23.274;2022-11-25T00:44:26;95323.63;;;6.08
42119;BMP280;27783;42.782;23.274;2022-11-25T00:47:09;95328.50;;;6.10
42119;BMP280;27783;42.782;23.274;2022-11-25T00:49:35;95333.72;;;6.10
42119;BMP280;27783;42.782;23.274;2022-11-25T00:52:12;95324.03;;;6.10
42119;BMP280;27783;42.782;23.274;2022-11-25T00:54:37;95333.72;;;6.10
42119;BMP280;27783;42.782;23.274;2022-11-25T00:57:05;95320.69;;;6.13
42119;BMP280;27783;42.782;23.274;2022-11-25T00:59:32;95336.41;;;6.16
42119;BMP280;27783;42.782;23.274;2022-11-25T01:01:59;95334.19;;;6.15
42119;BMP280;27783;42.782;23.274;2022-11-25T01:04:29;95332.31;;;6.16
42119;BMP280;27783;42.782;23.274;2022-11-25T01:06:56;95331.16;;;6.13
42119;BMP280;27783;42.782;23.274;2022-11-25T01:09:25;95336.75;;;6.12
42119;BMP280;27783;42.782;23.274;2022-11-25T01:11:52;95331.53;;;6.12
42119;BMP280;27783;42.782;23.274;2022-11-25T01:14:20;95336.03;;;6.15
42119;BMP280;27783;42.782;23.274;2022-11-25T01:16:54;95337.94;;;6.17
42119;BMP280;27783;42.782;23.274;2022-11-25T01:19:21;95333.81;;;6.16
42119;BMP280;27783;42.782;23.274;2022-11-25T01:21:46;95341.66;;;6.16
42119;BMP280;27783;42.782;23.274;2022-11-25T01:24:33;95332.63;;;6.11
42119;BMP280;27783;42.782;23.274;2022-11-25T01:27:00;95333.72;;;6.10
42119;BMP280;27783;42.782;23.274;2022-11-25T01:29:27;95327.78;;;6.13
42119;BMP280;27783;42.782;23.274;2022-11-25T01:31:55;95325.53;;;6.11
42119;BMP280;27783;42.782;23.274;2022-11-25T01:34:24;95325.16;;;6.13
42119;BMP280;27783;42.782;23.274;2022-11-25T01:36:50;95323.69;;;6.12
42119;BMP280;27783;42.782;23.274;2022-11-25T01:39:21;95318.88;;;6.17
42119;BMP280;27783;42.782;23.274;2022-11-25T01:41:55;95332.94;;;6.06
42119;BMP280;27783;42.782;23.274;2022-11-25T01:44:30;95330.00;;;6.11
42119;BMP280;27783;42.782;23.274;2022-11-25T01:47:19;95312.00;;;6.06
42119;BMP280;27783;42.782;23.274;2022-11-25T01:49:55;95314.66;;;6.09
42119;BMP280;27783;42.782;23.274;2022-11-25T01:52:44;95317.28;;;6.09
42119;BMP280;27783;42.782;23.274;2022-11-25T01:55:28;95310.94;;;6.10
42119;BMP280;27783;42.782;23.274;2022-11-25T01:58:07;95318.00;;;6.06
42119;BMP280;27783;42.782;23.274;2022-11-25T02:00:38;95312.38;;;6.04
42119;BMP280;27783;42.782;23.274;2022-11-25T02:03:05;95307.97;;;6.12
42119;BMP280;27783;42.782;23.274;2022-11-25T02:05:49;95313.94;;;6.09
42119;BMP280;27783;42.782;23.274;2022-11-25T02:08:19;95320.25;;;6.08
42119;BMP280;27783;42.782;23.274;2022-11-25T02:10:46;95320.97;;;6.05
42119;BMP280;27783;42.782;23.274;2022-11-25T02:13:14;95325.50;;;6.08
42119;BMP280;27783;42.782;23.274;2022-11-25T02:15:39;95323.16;;;5.99
42119;BMP280;27783;42.782;23.274;2022-11-25T02:18:20;95324.63;;;5.97
42119;BMP280;27783;42.782;23.274;2022-11-25T02:20:45;95323.03;;;5.89
42119;BMP280;27783;42.782;23.274;2022-11-25T02:25:58;95330.59;;;5.98
42119;BMP280;27783;42.782;23.274;2022-11-25T02:28:26;95328.03;;;6.01
42119;BMP280;27783;42.782;23.274;2022-11-25T02:30:52;95335.50;;;5.99
42119;BMP280;27783;42.782;23.274;2022-11-25T02:33:18;95326.09;;;5.95
42119;BMP280;27783;42.782;23.274;2022-11-25T02:38:54;95327.47;;;5.85
42119;BMP280;27783;42.782;23.274;2022-11-25T02:41:28;95329.31;;;5.82
42119;BMP280;27783;42.782;23.274;2022-11-25T02:44:00;95315.47;;;5.81
42119;BMP280;27783;42.782;23.274;2022-11-25T02:46:27;95324.38;;;5.77
42119;BMP280;27783;42.782;23.274;2022-11-25T02:48:54;95318.78;;;5.78
42119;BMP280;27783;42.782;23.274;2022-11-25T02:51:23;95311.72;;;5.79
42119;BMP280;27783;42.782;23.274;2022-11-25T02:53:50;95322.50;;;5.77
42119;BMP280;27783;42.782;23.274;2022-11-25T02:56:19;95318.84;;;5.82
42119;BMP280;27783;42.782;23.274;2022-11-25T02:58:46;95321.13;;;5.86
42119;BMP280;27783;42.782;23.274;2022-11-25T03:01:13;95319.97;;;5.84
42119;BMP280;27783;42.782;23.274;2022-11-25T03:03:41;95316.47;;;5.73
42119;BMP280;27783;42.782;23.274;2022-11-25T03:06:07;95330.34;;;5.77
42119;BMP280;27783;42.782;23.274;2022-11-25T03:08:34;95326.59;;;5.75
42119;BMP280;27783;42.782;23.274;2022-11-25T03:11:01;95325.41;;;5.69
42119;BMP280;27783;42.782;23.274;2022-11-25T03:13:35;95329.50;;;5.70
42119;BMP280;27783;42.782;23.274;2022-11-25T03:16:01;95333.97;;;5.66
42119;BMP280;27783;42.782;23.274;2022-11-25T03:18:29;95340.34;;;5.68
42119;BMP280;27783;42.782;23.274;2022-11-25T03:20:57;95337.25;;;5.63
42119;BMP280;27783;42.782;23.274;2022-11-25T03:23:23;95336.16;;;5.64
42119;BMP280;27783;42.782;23.274;2022-11-25T03:25:49;95345.75;;;5.57
42119;BMP280;27783;42.782;23.274;2022-11-25T03:28:20;95335.84;;;5.44
42119;BMP280;27783;42.782;23.274;2022-11-25T03:30:47;95348.59;;;5.45
42119;BMP280;27783;42.782;23.274;2022-11-25T03:33:13;95348.59;;;5.45
42119;BMP280;27783;42.782;23.274;2022-11-25T03:35:40;95347.72;;;5.38
42119;BMP280;27783;42.782;23.274;2022-11-25T03:38:34;95353.06;;;5.45
42119;BMP280;27783;42.782;23.274;2022-11-25T03:41:08;95358.28;;;5.45
42119;BMP280;27783;42.782;23.274;2022-11-25T03:43:42;95356.72;;;5.40
42119;BMP280;27783;42.782;23.274;2022-11-25T03:46:10;95355.88;;;5.33
42119;BMP280;27783;42.782;23.274;2022-11-25T03:48:35;95363.13;;;5.43
42119;BMP280;27783;42.782;23.274;2022-11-25T03:51:02;95369.00;;;5.36
42119;BMP280;27783;42.782;23.274;2022-11-25T03:53:29;95373.00;;;5.31
42119;BMP280;27783;42.782;23.274;2022-11-25T03:55:54;95368.94;;;5.33
42119;BMP280;27783;42.782;23.274;2022-11-25T03:58:20;95373.59;;;5.21
42119;BMP280;27783;42.782;23.274;2022-11-25T04:00:47;95377.97;;;5.14
42119;BMP280;27783;42.782;23.274;2022-11-25T04:03:13;95387.63;;;5.10
42119;BMP280;27783;42.782;23.274;2022-11-25T04:05:40;95395.03;;;5.08
42119;BMP280;27783;42.782;23.274;2022-11-25T04:08:06;95395.91;;;5.15
42119;BMP280;27783;42.782;23.274;2022-11-25T04:10:33;95395.78;;;5.08
42119;BMP280;27783;42.782;23.274;2022-11-25T04:12:59;95392.72;;;5.03
42119;BMP280;27783;42.782;23.274;2022-11-25T04:15:24;95397.19;;;5.02
42119;BMP280;27783;42.782;23.274;2022-11-25T04:17:52;95402.75;;;5.01
42119;BMP280;27783;42.782;23.274;2022-11-25T04:20:19;95398.53;;;4.93
42119;BMP280;27783;42.782;23.274;2022-11-25T04:22:45;95405.09;;;5.06
42119;BMP280;27783;42.782;23.274;2022-11-25T04:25:11;95406.78;;;4.95
42119;BMP280;27783;42.782;23.274;2022-11-25T04:27:38;95404.59;;;4.97
42119;BMP280;27783;42.782;23.274;2022-11-25T04:30:05;95404.59;;;4.97
42119;BMP280;27783;42.782;23.274;2022-11-25T04:32:30;95411.78;;;5.03
42119;BMP280;27783;42.782;23.274;2022-11-25T04:34:57;95411.88;;;4.88
42119;BMP280;27783;42.782;23.274;2022-11-25T04:37:23;95409.56;;;4.83
42119;BMP280;27783;42.782;23.274;2022-11-25T04:39:48;95410.78;;;4.89
42119;BMP280;27783;42.782;23.274;2022-11-25T04:42:16;95423.00;;;4.85
42119;BMP280;27783;42.782;23.274;2022-11-25T04:45:02;95417.03;;;4.85
42119;BMP280;27783;42.782;23.274;2022-11-25T04:47:31;95427.53;;;4.88
42119;BMP280;27783;42.782;23.274;2022-11-25T04:49:57;95430.03;;;4.82
42119;BMP280;27783;42.782;23.274;2022-11-25T04:52:24;95427.09;;;4.83
42119;BMP280;27783;42.782;23.274;2022-11-25T04:54:51;95437.16;;;4.84
42119;BMP280;27783;42.782;23.274;2022-11-25T04:57:16;95444.22;;;4.81
42119;BMP280;27783;42.782;23.274;2022-11-25T04:59:42;95444.25;;;4.84
42119;BMP280;27783;42.782;23.274;2022-11-25T05:02:17;95456.69;;;4.72
42119;BMP280;27783;42.782;23.274;2022-11-25T05:04:49;95467.50;;;4.70
42119;BMP280;27783;42.782;23.274;2022-11-25T05:07:17;95458.97;;;4.73
42119;BMP280;27783;42.782;23.274;2022-11-25T05:09:43;95460.84;;;4.73
42119;BMP280;27783;42.782;23.274;2022-11-25T05:12:12;95467.31;;;4.60
42119;BMP280;27783;42.782;23.274;2022-11-25T05:14:39;95469.06;;;4.75
42119;BMP280;27783;42.782;23.274;2022-11-25T05:17:15;95473.03;;;4.87
42119;BMP280;27783;42.782;23.274;2022-11-25T05:19:47;95480.97;;;4.94
42119;BMP280;27783;42.782;23.274;2022-11-25T05:22:16;95477.00;;;5.00
42119;BMP280;27783;42.782;23.274;2022-11-25T05:24:43;95488.22;;;5.04
42119;BMP280;27783;42.782;23.274;2022-11-25T05:27:11;95486.09;;;5.09
42119;BMP280;27783;42.782;23.274;2022-11-25T05:29:45;95500.72;;;5.14
42119;BMP280;27783;42.782;23.274;2022-11-25T05:32:12;95499.34;;;5.19
42119;BMP280;27783;42.782;23.274;2022-11-25T05:34:38;95497.91;;;5.22
42119;BMP280;27783;42.782;23.274;2022-11-25T05:37:25;95513.97;;;5.24
42119;BMP280;27783;42.782;23.274;2022-11-25T05:39:51;95514.84;;;5.31
42119;BMP280;27783;42.782;23.274;2022-11-25T05:42:20;95517.81;;;5.30
42119;BMP280;27783;42.782;23.274;2022-11-25T05:44:46;95512.72;;;5.36
42119;BMP280;27783;42.782;23.274;2022-11-25T05:47:20;95526.88;;;5.35
42119;BMP280;27783;42.782;23.274;2022-11-25T05:49:48;95525.88;;;5.43
42119;BMP280;27783;42.782;23.274;2022-11-25T05:52:14;95532.28;;;5.46
42119;BMP280;27783;42.782;23.274;2022-11-25T05:54:39;95531.63;;;5.52
42119;BMP280;27783;42.782;23.274;2022-11-25T05:57:05;95535.19;;;5.63
42119;BMP280;27783;42.782;23.274;2022-11-25T05:59:30;95539.22;;;5.60
42119;BMP280;27783;42.782;23.274;2022-11-25T06:01:57;95537.88;;;5.66
42119;BMP280;27783;42.782;23.274;2022-11-25T06:04:22;95536.34;;;5.65
42119;BMP280;27783;42.782;23.274;2022-11-25T06:06:48;95534.13;;;5.67
42119;BMP280;27783;42.782;23.274;2022-11-25T06:09:13;95540.88;;;5.68
42119;BMP280;27783;42.782;23.274;2022-11-25T06:11:39;95546.94;;;5.72
42119;BMP280;27783;42.782;23.274;2022-11-25T06:14:04;95551.03;;;5.73
42119;BMP280;27783;42.782;23.274;2022-11-25T06:16:30;95555.22;;;5.77
42119;BMP280;27783;42.782;23.274;2022-11-25T06:18:55;95552.72;;;5.84
42119;BMP280;27783;42.782;23.274;2022-11-25T06:21:21;95554.69;;;5.90
42119;BMP280;27783;42.782;23.274;2022-11-25T06:23:46;95569.63;;;5.90
42119;BMP280;27783;42.782;23.274;2022-11-25T06:26:20;95570.84;;;5.96
42119;BMP280;27783;42.782;23.274;2022-11-25T06:28:46;95575.72;;;5.97
42119;BMP280;27783;42.782;23.274;2022-11-25T06:31:17;95581.75;;;6.01
42119;BMP280;27783;42.782;23.274;2022-11-25T06:33:45;95581.44;;;6.06
42119;BMP280;27783;42.782;23.274;2022-11-25T06:36:11;95598.38;;;6.12
42119;BMP280;27783;42.782;23.274;2022-11-25T06:38:41;95592.03;;;6.13
42119;BMP280;27783;42.782;23.274;2022-11-25T06:41:08;95590.88;;;6.10
42119;BMP280;27783;42.782;23.274;2022-11-25T06:43:33;95600.56;;;6.10
42119;BMP280;27783;42.782;23.274;2022-11-25T06:46:04;95599.13;;;6.12
42119;BMP280;27783;42.782;23.274;2022-11-25T06:48:30;95617.91;;;6.17
42119;BMP280;27783;42.782;23.274;2022-11-25T06:50:57;95605.22;;;6.19
42119;BMP280;27783;42.782;23.274;2022-11-25T06:53:23;95607.13;;;6.22
42119;BMP280;27783;42.782;23.274;2022-11-25T06:55:49;95618.00;;;6.24
42119;BMP280;27783;42.782;23.274;2022-11-25T06:58:14;95612.00;;;6.24
42119;BMP280;27783;42.782;23.274;2022-11-25T07:00:40;95615.78;;;6.26
42119;BMP280;27783;42.782;23.274;2022-11-25T07:03:05;95612.78;;;6.24
42119;BMP280;27783;42.782;23.274;2022-11-25T07:05:31;95615.78;;;6.26
42119;BMP280;27783;42.782;23.274;2022-11-25T07:07:56;95621.44;;;6.28
42119;BMP280;27783;42.782;23.274;2022-11-25T07:10:22;95630.50;;;6.34
42119;BMP280;27783;42.782;23.274;2022-11-25T07:12:47;95621.22;;;6.40
42119;BMP280;27783;42.782;23.274;2022-11-25T07:15:12;95618.50;;;6.33
42119;BMP280;27783;42.782;23.274;2022-11-25T07:17:38;95624.94;;;6.39
42119;BMP280;27783;42.782;23.274;2022-11-25T07:20:04;95631.69;;;6.40
42119;BMP280;27783;42.782;23.274;2022-11-25T07:22:29;95629.38;;;6.35
42119;BMP280;27783;42.782;23.274;2022-11-25T07:24:55;95628.25;;;6.36
42119;BMP280;27783;42.782;23.274;2022-11-25T07:27:20;95627.22;;;6.40
42119;BMP280;27783;42.782;23.274;2022-11-25T07:29:47;95627.16;;;6.37
42119;BMP280;27783;42.782;23.274;2022-11-25T07:32:12;95639.81;;;6.32
42119;BMP280;27783;42.782;23.274;2022-11-25T07:34:37;95630.53;;;6.37
42119;BMP280;27783;42.782;23.274;2022-11-25T07:37:03;95632.78;;;6.39
42119;BMP280;27783;42.782;23.274;2022-11-25T07:39:28;95632.44;;;6.40
42119;BMP280;27783;42.782;23.274;2022-11-25T07:41:53;95624.50;;;6.87
42119;BMP280;27783;42.782;23.274;2022-11-25T07:44:19;95629.25;;;7.07
42119;BMP280;27783;42.782;23.274;2022-11-25T07:46:47;95630.66;;;7.30
42119;BMP280;27783;42.782;23.274;2022-11-25T07:49:18;95625.66;;;7.50
42119;BMP280;27783;42.782;23.274;2022-11-25T07:51:55;95640.00;;;7.63
42119;BMP280;27783;42.782;23.274;2022-11-25T07:54:22;95647.38;;;7.86
42119;BMP280;27783;42.782;23.274;2022-11-25T07:56:48;95644.56;;;8.05
42119;BMP280;27783;42.782;23.274;2022-11-25T07:59:18;95644.94;;;8.07
42119;BMP280;27783;42.782;23.274;2022-11-25T08:01:44;95650.94;;;8.07
42119;BMP280;27783;42.782;23.274;2022-11-25T08:04:11;95662.56;;;8.06
42119;BMP280;27783;42.782;23.274;2022-11-25T08:06:42;95655.06;;;8.05
42119;BMP280;27783;42.782;23.274;2022-11-25T08:09:10;95666.84;;;8.24
42119;BMP280;27783;42.782;23.274;2022-11-25T08:11:36;95658.31;;;8.37
42119;BMP280;27783;42.782;23.274;2022-11-25T08:14:02;95660.94;;;8.34
42119;BMP280;27783;42.782;23.274;2022-11-25T08:16:28;95666.78;;;8.17
42119;BMP280;27783;42.782;23.274;2022-11-25T08:18:58;95668.78;;;8.31
42119;BMP280;27783;42.782;23.274;2022-11-25T08:21:24;95663.31;;;8.49
42119;BMP280;27783;42.782;23.274;2022-11-25T08:23:49;95676.22;;;8.71
42119;BMP280;27783;42.782;23.274;2022-11-25T08:26:35;95664.19;;;8.70
42119;BMP280;27783;42.782;23.274;2022-11-25T08:29:04;95668.47;;;8.91
42119;BMP280;27783;42.782;23.274;2022-11-25T08:31:35;95665.22;;;9.15
42119;BMP280;27783;42.782;23.274;2022-11-25T08:34:02;95667.31;;;8.92
42119;BMP280;27783;42.782;23.274;2022-11-25T08:36:30;95647.50;;;9.01
42119;BMP280;27783;42.782;23.274;2022-11-25T08:38:58;95655.34;;;8.95
42119;BMP280;27783;42.782;23.274;2022-11-25T08:41:31;95651.63;;;9.06
42119;BMP280;27783;42.782;23.274;2022-11-25T08:43:59;95659.88;;;9.01
42119;BMP280;27783;42.782;23.274;2022-11-25T08:46:29;95661.66;;;9.63
42119;BMP280;27783;42.782;23.274;2022-11-25T08:48:55;95658.91;;;9.36
42119;BMP280;27783;42.782;23.274;2022-11-25T08:51:24;95664.16;;;9.32
42119;BMP280;27783;42.782;23.274;2022-11-25T08:53:50;95660.09;;;9.48
42119;BMP280;27783;42.782;23.274;2022-11-25T08:56:16;95654.97;;;9.82
42119;BMP280;27783;42.782;23.274;2022-11-25T08:58:41;95651.22;;;9.94
42119;BMP280;27783;42.782;23.274;2022-11-25T09:01:07;95644.84;;;10.08
42119;BMP280;27783;42.782;23.274;2022-11-25T09:03:37;95658.00;;;9.95
42119;BMP280;27783;42.782;23.274;2022-11-25T09:06:05;95662.84;;;9.79
42119;BMP280;27783;42.782;23.274;2022-11-25T09:08:31;95663.16;;;9.57
42119;BMP280;27783;42.782;23.274;2022-11-25T09:10:57;95659.13;;;10.14
42119;BMP280;27783;42.782;23.274;2022-11-25T09:13:22;95667.38;;;9.85
42119;BMP280;27783;42.782;23.274;2022-11-25T09:15:48;95675.25;;;9.79
42119;BMP280;27783;42.782;23.274;2022-11-25T09:18:13;95672.13;;;9.49
42119;BMP280;27783;42.782;23.274;2022-11-25T09:20:40;95673.78;;;9.98
42119;BMP280;27783;42.782;23.274;2022-11-25T09:23:07;95675.31;;;10.06
42119;BMP280;27783;42.782;23.274;2022-11-25T09:25:33;95682.38;;;9.78
42119;BMP280;27783;42.782;23.274;2022-11-25T09:27:59;95680.16;;;9.77
42119;BMP280;27783;42.782;23.274;2022-11-25T09:30:25;95672.31;;;10.17
42119;BMP280;27783;42.782;23.274;2022-11-25T09:32:52;95678.22;;;9.67
42119;BMP280;27783;42.782;23.274;2022-11-25T09:35:18;95674.56;;;10.02
42119;BMP280;27783;42.782;23.274;2022-11-25T09:37:43;95676.84;;;10.34
42119;BMP280;27783;42.782;23.274;2022-11-25T09:49:07;95672.69;;;10.77
42119;BMP280;27783;42.782;23.274;2022-11-25T09:51:20;95671.91;;;11.00
42119;BMP280;27783;42.782;23.274;2022-11-25T09:56:31;95678.38;;;10.45
42119;BMP280;27783;42.782;23.274;2022-11-25T09:59:05;95683.28;;;10.47
42119;BMP280;27783;42.782;23.274;2022-11-25T10:01:37;95671.22;;;10.59
42119;BMP280;27783;42.782;23.274;2022-11-25T10:04:10;95682.13;;;10.34
42119;BMP280;27783;42.782;23.274;2022-11-25T10:06:58;95675.72;;;10.28
42119;BMP280;27783;42.782;23.274;2022-11-25T10:09:28;95662.56;;;10.42
42119;BMP280;27783;42.782;23.274;2022-11-25T10:11:57;95664.81;;;10.26
42119;BMP280;27783;42.782;23.274;2022-11-25T10:22:22;95679.28;;;9.56
42119;BMP280;27783;42.782;23.274;2022-11-25T10:24:50;95659.88;;;9.98
42119;BMP280;27783;42.782;23.274;2022-11-25T10:27:22;95667.44;;;10.19
42119;BMP280;27783;42.782;23.274;2022-11-25T10:29:58;95659.50;;;9.96
42119;BMP280;27783;42.782;23.274;2022-11-25T10:32:32;95665.94;;;10.25
42119;BMP280;27783;42.782;23.274;2022-11-25T10:35:03;95665.53;;;10.03
42119;BMP280;27783;42.782;23.274;2022-11-25T10:37:33;95672.09;;;9.43
42119;BMP280;27783;42.782;23.274;2022-11-25T10:39:59;95658.56;;;9.41
42119;BMP280;27783;42.782;23.274;2022-11-25T10:42:26;95667.63;;;9.53
42119;BMP280;27783;42.782;23.274;2022-11-25T10:44:53;95670.44;;;10.32
42119;BMP280;27783;42.782;23.274;2022-11-25T10:50:05;95671.56;;;10.00
42119;BMP280;27783;42.782;23.274;2022-11-25T10:55:58;95672.13;;;9.53
42119;BMP280;27783;42.782;23.274;2022-11-25T11:01:16;95689.28;;;10.23
42119;BMP280;27783;42.782;23.274;2022-11-25T11:03:45;95677.59;;;10.17
42119;BMP280;27783;42.782;23.274;2022-11-25T11:06:42;95688.84;;;10.08
42119;BMP280;27783;42.782;23.274;2022-11-25T11:09:37;95683.81;;;9.65
42119;BMP280;27783;42.782;23.274;2022-11-25T11:12:25;95689.59;;;10.01
42119;BMP280;27783;42.782;23.274;2022-11-25T11:14:52;95683.09;;;9.72
42119;BMP280;27783;42.782;23.274;2022-11-25T11:17:34;95680.63;;;10.26
42119;BMP280;27783;42.782;23.274;2022-11-25T11:22:35;95693.38;;;10.04
42119;BMP280;27783;42.782;23.274;2022-11-25T11:25:24;95691.91;;;10.23
42119;BMP280;27783;42.782;23.274;2022-11-25T11:27:51;95692.25;;;10.18
42119;BMP280;27783;42.782;23.274;2022-11-25T11:33:30;95688.13;;;10.21
42119;BMP280;27783;42.782;23.274;2022-11-25T11:36:06;95679.13;;;10.32
42119;BMP280;27783;42.782;23.274;2022-11-25T11:41:41;95689.66;;;10.25
42119;BMP280;27783;42.782;23.274;2022-11-25T11:53:49;95696.81;;;10.45
42119;BMP280;27783;42.782;23.274;2022-11-25T11:56:15;95686.66;;;10.27
42119;BMP280;27783;42.782;23.274;2022-11-25T12:04:23;95690.78;;;10.58
42119;BMP280;27783;42.782;23.274;2022-11-25T12:07:01;95702.44;;;10.67
42119;BMP280;27783;42.782;23.274;2022-11-25T12:09:30;95697.16;;;10.44
42119;BMP280;27783;42.782;23.274;2022-11-25T12:12:01;95710.00;;;10.55
42119;BMP280;27783;42.782;23.274;2022-11-25T12:14:49;95693.38;;;10.17
42119;BMP280;27783;42.782;23.274;2022-11-25T12:19:57;95700.97;;;10.46
42119;BMP280;27783;42.782;23.274;2022-11-25T12:22:43;95700.97;;;10.39
42119;BMP280;27783;42.782;23.274;2022-11-25T12:25:16;95707.72;;;10.30
42119;BMP280;27783;42.782;23.274;2022-11-25T12:27:46;95685.47;;;10.21
42119;BMP280;27783;42.782;23.274;2022-11-25T12:35:45;95706.16;;;10.09
42119;BMP280;27783;42.782;23.274;2022-11-25T12:38:29;95697.50;;;10.05
42119;BMP280;27783;42.782;23.274;2022-11-25T12:44:36;95697.91;;;10.27
42119;BMP280;27783;42.782;23.274;2022-11-25T12:47:09;95693.38;;;10.11
42119;BMP280;27783;42.782;23.274;2022-11-25T12:49:41;95693.41;;;10.28
42119;BMP280;27783;42.782;23.274;2022-11-25T13:00:23;95677.59;;;10.00
42119;BMP280;27783;42.782;23.274;2022-11-25T13:03:23;95674.91;;;9.80
42119;BMP280;27783;42.782;23.274;2022-11-25T13:06:08;95675.31;;;9.99
42119;BMP280;27783;42.782;23.274;2022-11-25T13:11:43;95662.88;;;9.93
42119;BMP280;27783;42.782;23.274;2022-11-25T13:16:44;95676.00;;;9.79
42119;BMP280;27783;42.782;23.274;2022-11-25T13:19:10;95674.91;;;9.80
42119;BMP280;27783;42.782;23.274;2022-11-25T13:22:00;95680.94;;;9.91
42119;BMP280;27783;42.782;23.274;2022-11-25T13:24:47;95675.66;;;9.84
42119;BMP280;27783;42.782;23.274;2022-11-25T13:30:21;95685.66;;;9.51
42119;BMP280;27783;42.782;23.274;2022-11-25T13:32:50;95678.88;;;9.44
42119;BMP280;27783;42.782;23.274;2022-11-25T13:37:51;95692.41;;;9.46
42119;BMP280;27783;42.782;23.274;2022-11-25T13:42:46;95684.81;;;9.31
42119;BMP280;27783;42.782;23.274;2022-11-25T13:45:35;95691.59;;;9.32
42119;BMP280;27783;42.782;23.274;2022-11-25T13:48:17;95697.53;;;9.18
42119;BMP280;27783;42.782;23.274;2022-11-25T13:50:44;95704.28;;;9.19
42119;BMP280;27783;42.782;23.274;2022-11-25T13:53:31;95706.56;;;9.17
42119;BMP280;27783;42.782;23.274;2022-11-25T13:56:26;95715.41;;;8.93
42119;BMP280;27783;42.782;23.274;2022-11-25T14:01:40;95711.25;;;8.88
42119;BMP280;27783;42.782;23.274;2022-11-25T14:04:21;95721.78;;;8.88
42119;BMP280;27783;42.782;23.274;2022-11-25T14:20:45;95743.28;;;8.16
42119;BMP280;27783;42.782;23.274;2022-11-25T14:26:26;95746.34;;;7.89
42119;BMP280;27783;42.782;23.274;2022-11-25T14:28:54;95749.16;;;7.74
42119;BMP280;27783;42.782;23.274;2022-11-25T14:31:31;95743.13;;;7.70
42119;BMP280;27783;42.782;23.274;2022-11-25T14:34:02;95753.25;;;7.72
42119;BMP280;27783;42.782;23.274;2022-11-25T14:36:49;95743.66;;;7.50
42119;BMP280;27783;42.782;23.274;2022-11-25T14:39:41;95741.75;;;7.51
42119;BMP280;27783;42.782;23.274;2022-11-25T14:42:16;95737.13;;;7.41
42119;BMP280;27783;42.782;23.274;2022-11-25T14:44:49;95744.13;;;7.31
42119;BMP280;27783;42.782;23.274;2022-11-25T14:47:23;95747.50;;;7.31
42119;BMP280;27783;42.782;23.274;2022-11-25T14:49:58;95750.72;;;7.21
42119;BMP280;27783;42.782;23.274;2022-11-25T14:52:30;95743.34;;;7.01
42119;BMP280;27783;42.782;23.274;2022-11-25T14:54:57;95754.06;;;7.18
42119;BMP280;27783;42.782;23.274;2022-11-25T14:57:26;95756.03;;;6.99
42119;BMP280;27783;42.782;23.274;2022-11-25T14:59:55;95750.63;;;7.15
42119;BMP280;27783;42.782;23.274;2022-11-25T15:02:35;95742.03;;;6.89
42119;BMP280;27783;42.782;23.274;2022-11-25T15:07:27;95756.03;;;6.74
42119;BMP280;27783;42.782;23.274;2022-11-25T15:09:53;95748.94;;;6.75
42119;BMP280;27783;42.782;23.274;2022-11-25T15:12:19;95753.31;;;6.67
42119;BMP280;27783;42.782;23.274;2022-11-25T15:14:51;95757.78;;;6.67
42119;BMP280;27783;42.782;23.274;2022-11-25T15:17:31;95765.16;;;6.58
42119;BMP280;27783;42.782;23.274;2022-11-25T15:20:17;95764.91;;;6.45
42119;BMP280;27783;42.782;23.274;2022-11-25T15:22:50;95763.38;;;6.44
42119;BMP280;27783;42.782;23.274;2022-11-25T15:25:16;95765.25;;;6.43
42119;BMP280;27783;42.782;23.274;2022-11-25T15:27:45;95762.88;;;6.35
42119;BMP280;27783;42.782;23.274;2022-11-25T15:30:24;95763.03;;;6.23
42119;BMP280;27783;42.782;23.274;2022-11-25T15:32:50;95766.13;;;6.29
42119;BMP280;27783;42.782;23.274;2022-11-25T15:35:18;95769.09;;;6.27
42119;BMP280;27783;42.782;23.274;2022-11-25T15:37:46;95770.28;;;6.11
42119;BMP280;27783;42.782;23.274;2022-11-25T15:40:31;95779.72;;;6.16
42119;BMP280;27783;42.782;23.274;2022-11-25T15:42:58;95788.75;;;6.18
42119;BMP280;27783;42.782;23.274;2022-11-25T15:45:24;95784.13;;;6.12
42119;BMP280;27783;42.782;23.274;2022-11-25T15:47:51;95784.41;;;6.07
42119;BMP280;27783;42.782;23.274;2022-11-25T15:50:23;95776.41;;;6.18
42119;BMP280;27783;42.782;23.274;2022-11-25T15:52:55;95790.47;;;6.11
42119;BMP280;27783;42.782;23.274;2022-11-25T15:55:33;95779.88;;;6.04
42119;BMP280;27783;42.782;23.274;2022-11-25T15:58:07;95778.09;;;5.89
42119;BMP280;27783;42.782;23.274;2022-11-25T16:00:35;95792.09;;;5.78
42119;BMP280;27783;42.782;23.274;2022-11-25T16:03:01;95780.72;;;5.71
42119;BMP280;27783;42.782;23.274;2022-11-25T16:05:29;95785.81;;;5.64
42119;BMP280;27783;42.782;23.274;2022-11-25T16:07:59;95788.00;;;5.62
42119;BMP280;27783;42.782;23.274;2022-11-25T16:10:29;95792.94;;;5.48
42119;BMP280;27783;42.782;23.274;2022-11-25T16:15:49;95796.38;;;5.52
42119;BMP280;27783;42.782;23.274;2022-11-25T16:18:16;95793.13;;;5.40
42119;BMP280;27783;42.782;23.274;2022-11-25T16:21:12;95799.13;;;5.41